createdAt,value
2016-07-11T13:24:42.680Z,8
2016-07-11T13:25:42.628Z,20
2016-07-11T13:26:42.612Z,16
2016-07-11T13:27:42.601Z,16
2016-07-11T13:28:42.591Z,12
2016-07-11T13:29:42.593Z,16
2016-07-11T13:30:42.593Z,16
2016-07-11T13:31:42.577Z,12
2016-07-11T13:32:42.579Z,12
2016-07-11T13:33:42.567Z,12
2016-07-11T13:34:42.567Z,12
2016-07-11T13:35:42.757Z,16
2016-07-11T13:36:42.582Z,16
2016-07-11T13:37:42.556Z,16
2016-07-11T13:38:42.551Z,16
2016-07-11T13:39:42.544Z,16
2016-07-11T13:40:42.548Z,16
2016-07-11T13:41:42.567Z,16
2016-07-11T13:42:42.552Z,16
2016-07-11T13:43:42.546Z,8
2016-07-11T13:44:42.547Z,8
2016-07-11T13:45:42.736Z,4
2016-07-11T13:46:42.728Z,4
2016-07-11T13:47:42.539Z,8
2016-07-11T13:48:42.730Z,8
2016-07-11T13:49:42.533Z,12
2016-07-11T13:50:42.529Z,28
2016-07-11T13:51:42.526Z,24
2016-07-11T13:52:42.522Z,16
2016-07-11T13:53:42.528Z,16
2016-07-11T13:54:42.521Z,28
2016-07-11T13:55:42.716Z,24
2016-07-11T13:56:42.522Z,28
2016-07-11T13:57:42.516Z,28
2016-07-11T13:58:42.525Z,28
2016-07-11T13:59:42.521Z,24
2016-07-11T14:00:42.719Z,24
2016-07-11T14:01:42.524Z,28
2016-07-11T14:02:42.514Z,12
2016-07-11T14:03:42.520Z,24
2016-07-11T14:04:42.517Z,20
2016-07-11T14:05:42.513Z,12
2016-07-11T14:06:42.527Z,28
2016-07-11T14:07:42.523Z,24
2016-07-11T14:08:42.518Z,24
2016-07-11T14:09:42.715Z,24
2016-07-11T14:10:42.514Z,20
2016-07-11T14:11:42.513Z,20
2016-07-11T14:12:42.522Z,20
2016-07-11T14:13:42.518Z,20
2016-07-11T14:14:42.517Z,20
2016-07-11T14:15:42.526Z,20
2016-07-11T14:16:42.519Z,24
2016-07-11T14:17:42.516Z,20
2016-07-11T14:18:42.517Z,24
2016-07-11T14:19:42.521Z,12
2016-07-11T14:20:42.521Z,20
2016-07-11T14:21:42.522Z,24
2016-07-11T14:22:42.766Z,16
2016-07-11T14:23:42.989Z,20
2016-07-11T14:24:43.190Z,16
2016-07-11T14:25:42.859Z,20
2016-07-11T14:26:43.111Z,20
2016-07-11T14:27:42.653Z,16
2016-07-11T14:28:42.815Z,24
2016-07-11T14:29:42.823Z,8
2016-07-11T14:30:42.822Z,8
2016-07-11T14:31:43.111Z,12
2016-07-11T14:32:42.883Z,12
2016-07-11T14:33:43.018Z,8
2016-07-11T14:34:43.218Z,8
2016-07-11T14:35:43.334Z,8
2016-07-11T14:36:42.561Z,8
2016-07-11T14:37:42.569Z,12
2016-07-11T14:38:42.545Z,12
2016-07-11T14:39:42.545Z,12
2016-07-11T14:40:42.690Z,8
2016-07-11T14:41:42.701Z,8
2016-07-11T14:42:42.695Z,8
2016-07-11T14:43:42.705Z,8
2016-07-11T14:44:42.775Z,8
2016-07-11T14:45:42.708Z,8
2016-07-11T14:46:42.714Z,8
2016-07-11T14:47:43.077Z,8
2016-07-11T14:48:43.184Z,8
2016-07-11T14:49:43.344Z,4
2016-07-11T14:50:43.694Z,8
2016-07-11T14:51:43.152Z,8
2016-07-11T14:52:43.367Z,8
2016-07-11T14:53:43.208Z,8
2016-07-11T14:54:42.554Z,12
2016-07-11T14:55:42.552Z,8
2016-07-11T14:56:42.563Z,24
2016-07-11T14:57:42.800Z,12
2016-07-11T14:58:42.772Z,16
2016-07-11T14:59:42.575Z,24
2016-07-11T15:00:42.563Z,24
2016-07-11T15:01:42.785Z,20
2016-07-11T15:02:42.574Z,12
2016-07-11T15:03:42.780Z,16
2016-07-11T15:04:42.775Z,28
2016-07-11T15:05:42.610Z,24
2016-07-11T15:06:42.582Z,28
2016-07-11T15:07:42.593Z,24
2016-07-11T15:08:42.602Z,28
2016-07-11T15:09:42.613Z,12
2016-07-11T15:10:42.792Z,28
2016-07-11T15:11:42.573Z,28
2016-07-11T15:12:42.583Z,32
2016-07-11T15:13:42.580Z,28
2016-07-11T15:14:42.590Z,28
2016-07-11T15:15:42.579Z,32
2016-07-11T15:16:42.796Z,32
2016-07-11T15:17:42.599Z,32
2016-07-11T15:18:42.590Z,28
2016-07-11T15:19:42.594Z,36
2016-07-11T15:20:42.591Z,36
2016-07-11T15:21:42.598Z,32
2016-07-11T15:22:42.603Z,28
2016-07-11T15:23:42.806Z,36
2016-07-11T15:24:42.595Z,36
2016-07-11T15:25:42.664Z,36
2016-07-11T15:26:42.607Z,40
2016-07-11T15:27:42.605Z,36
2016-07-11T15:28:42.603Z,40
2016-07-11T15:29:42.603Z,36
2016-07-11T15:30:42.622Z,44
2016-07-11T15:31:42.615Z,4
2016-07-11T15:32:42.615Z,8
2016-07-11T15:33:43.006Z,8
2016-07-11T15:34:43.091Z,44
2016-07-11T15:35:43.280Z,8
2016-07-11T15:36:43.183Z,32
2016-07-11T15:37:42.622Z,48
2016-07-11T15:38:42.610Z,52
2016-07-11T15:39:43.404Z,56
2016-07-11T15:40:43.240Z,56
2016-07-11T15:41:43.187Z,56
2016-07-11T15:42:42.621Z,52
2016-07-11T15:43:42.623Z,56
2016-07-11T15:44:42.637Z,48
2016-07-11T15:45:42.630Z,36
2016-07-11T15:46:43.166Z,8
2016-07-11T15:47:43.374Z,36
2016-07-11T15:48:43.210Z,12
2016-07-11T15:49:42.631Z,8
2016-07-11T15:50:43.583Z,20
2016-07-11T15:51:43.065Z,16
2016-07-11T15:52:42.774Z,28
2016-07-11T15:53:42.840Z,16
2016-07-11T15:54:42.651Z,32
2016-07-11T15:55:42.642Z,28
2016-07-11T15:56:42.646Z,28
2016-07-11T15:57:42.842Z,8
2016-07-11T15:58:42.643Z,8
2016-07-11T15:59:42.853Z,12
2016-07-11T16:00:42.650Z,8
2016-07-11T16:01:42.658Z,24
2016-07-11T16:02:42.667Z,8
2016-07-11T16:03:42.673Z,16
2016-07-11T16:04:42.674Z,28
2016-07-11T16:05:43.082Z,20
2016-07-11T16:06:42.660Z,20
2016-07-11T16:07:42.671Z,20
2016-07-11T16:08:42.656Z,24
2016-07-11T16:09:42.872Z,20
2016-07-11T16:10:42.681Z,20
2016-07-11T16:11:42.665Z,16
2016-07-11T16:12:42.869Z,12
2016-07-11T16:13:42.673Z,8
2016-07-11T16:14:42.668Z,8
2016-07-11T16:15:42.689Z,12
2016-07-11T16:16:42.887Z,12
2016-07-11T16:17:42.681Z,8
2016-07-11T16:18:42.680Z,8
2016-07-11T16:19:42.880Z,8
2016-07-11T16:20:42.693Z,16
2016-07-11T16:21:42.687Z,12
2016-07-11T16:22:42.695Z,8
2016-07-11T16:23:42.690Z,8
2016-07-11T16:24:42.685Z,8
2016-07-11T16:25:42.747Z,12
2016-07-11T16:26:42.695Z,8
2016-07-11T16:27:42.693Z,8
2016-07-11T16:28:43.086Z,8
2016-07-11T16:29:43.353Z,8
2016-07-11T16:30:43.317Z,8
2016-07-11T16:31:43.248Z,12
2016-07-11T16:32:42.925Z,8
2016-07-11T16:33:42.942Z,8
2016-07-11T16:34:42.740Z,12
2016-07-11T16:35:43.222Z,12
2016-07-11T16:36:43.184Z,8
2016-07-11T16:37:43.394Z,12
2016-07-11T16:38:43.093Z,8
2016-07-11T16:39:43.349Z,8
2016-07-11T16:40:43.187Z,8
2016-07-11T16:41:43.334Z,8
2016-07-11T16:42:43.020Z,8
2016-07-11T16:43:43.188Z,8
2016-07-11T16:44:42.721Z,8
2016-07-11T16:45:42.718Z,8
2016-07-11T16:46:42.729Z,8
2016-07-11T16:47:42.730Z,8
2016-07-11T16:48:42.923Z,8
2016-07-11T16:49:42.727Z,4
2016-07-11T16:50:42.728Z,8
2016-07-11T16:51:42.730Z,4
2016-07-11T16:52:42.738Z,8
2016-07-11T16:53:42.748Z,4
2016-07-11T16:54:42.725Z,8
2016-07-11T16:55:42.737Z,4
2016-07-11T16:56:42.741Z,8
2016-07-11T16:57:42.945Z,8
2016-07-11T16:58:42.751Z,8
2016-07-11T16:59:42.741Z,8
2016-07-11T17:00:42.746Z,8
2016-07-11T17:01:43.154Z,4
2016-07-11T17:02:43.146Z,4
2016-07-11T17:03:42.795Z,4
2016-07-11T17:04:42.772Z,8
2016-07-11T17:05:42.781Z,8
2016-07-11T17:06:42.786Z,8
2016-07-11T17:07:42.772Z,4
2016-07-11T17:08:42.781Z,4
2016-07-11T17:09:42.789Z,4
2016-07-11T17:10:42.774Z,4
2016-07-11T17:11:42.785Z,4
2016-07-11T17:12:42.994Z,8
2016-07-11T17:13:42.808Z,8
2016-07-11T17:14:42.884Z,4
2016-07-11T17:15:43.183Z,8
2016-07-11T17:16:42.906Z,4
2016-07-11T17:17:42.964Z,8
2016-07-11T17:18:42.995Z,8
2016-07-11T17:19:42.807Z,4
2016-07-11T17:20:42.781Z,4
2016-07-11T17:21:42.780Z,4
2016-07-11T17:22:42.780Z,4
2016-07-11T17:23:42.779Z,8
2016-07-11T17:24:42.790Z,8
2016-07-11T17:25:42.791Z,8
2016-07-11T17:26:42.784Z,8
2016-07-11T17:27:42.800Z,12
2016-07-11T17:28:42.791Z,8
2016-07-11T17:29:42.800Z,8
2016-07-11T17:30:42.790Z,8
2016-07-11T17:31:42.820Z,4
2016-07-11T17:32:43.004Z,4
2016-07-11T17:33:42.809Z,4
2016-07-11T17:34:42.816Z,4
2016-07-11T17:35:42.812Z,4
2016-07-11T17:36:43.018Z,4
2016-07-11T17:37:42.814Z,0
2016-07-11T17:38:42.828Z,4
2016-07-11T17:39:42.816Z,4
2016-07-11T17:40:42.816Z,4
2016-07-11T17:41:43.665Z,4
2016-07-11T17:42:43.392Z,4
2016-07-11T17:43:43.761Z,4
2016-07-11T17:44:43.690Z,4
2016-07-11T17:45:43.779Z,4
2016-07-11T17:46:43.056Z,4
2016-07-11T17:47:43.051Z,4
2016-07-11T17:48:42.845Z,4
2016-07-11T17:49:43.366Z,4
2016-07-11T17:50:43.121Z,0
2016-07-11T17:51:43.892Z,0
2016-07-11T17:52:42.996Z,4
2016-07-11T17:53:43.187Z,4
2016-07-11T17:54:42.846Z,0
2016-07-11T17:55:42.852Z,0
2016-07-11T17:56:42.858Z,0
2016-07-11T17:57:43.070Z,0
2016-07-11T17:58:42.851Z,0
2016-07-11T17:59:42.862Z,0
2016-07-11T18:00:43.064Z,0
2016-07-11T18:01:42.865Z,0
2016-07-11T18:02:42.863Z,0
2016-07-11T18:03:42.864Z,0
2016-07-11T18:04:42.875Z,0
2016-07-11T18:05:43.074Z,0
2016-07-11T18:06:42.883Z,4
2016-07-11T18:07:42.873Z,4
2016-07-11T18:08:42.876Z,4
2016-07-11T18:09:42.877Z,4
2016-07-11T18:10:42.885Z,4
2016-07-11T18:11:42.899Z,4
2016-07-11T18:12:42.892Z,4
2016-07-11T18:13:43.101Z,4
2016-07-11T18:14:42.898Z,4
2016-07-11T18:15:43.101Z,4
2016-07-11T18:16:42.902Z,4
2016-07-11T18:17:42.901Z,4
2016-07-11T18:18:42.898Z,4
2016-07-11T18:19:42.906Z,4
2016-07-11T18:20:42.919Z,4
2016-07-11T18:21:42.918Z,0
2016-07-11T18:22:42.924Z,0
2016-07-11T18:23:42.926Z,0
2016-07-11T18:24:42.924Z,0
2016-07-11T18:25:42.977Z,0
2016-07-11T18:26:42.926Z,4
2016-07-11T18:27:42.933Z,4
2016-07-11T18:28:42.928Z,4
2016-07-11T18:29:42.946Z,0
2016-07-11T18:30:42.939Z,0
2016-07-11T18:31:42.938Z,0
2016-07-11T18:32:42.935Z,4
2016-07-11T18:33:43.154Z,4
2016-07-11T18:34:42.948Z,4
2016-07-11T18:35:43.171Z,4
2016-07-11T18:36:42.967Z,0
2016-07-11T18:37:42.962Z,0
2016-07-11T18:38:42.961Z,4
2016-07-11T18:39:42.966Z,4
2016-07-11T18:40:42.975Z,4
2016-07-11T18:41:42.977Z,4
2016-07-11T18:42:42.971Z,4
2016-07-11T18:43:42.967Z,0
2016-07-11T18:44:42.979Z,4
2016-07-11T18:45:42.982Z,4
2016-07-11T18:46:42.983Z,0
2016-07-11T18:47:42.984Z,0
2016-07-11T18:48:42.992Z,0
2016-07-11T18:49:42.991Z,4
2016-07-11T18:50:43.197Z,0
2016-07-11T18:51:45.435Z,4
2016-07-11T18:52:43.000Z,0
2016-07-11T18:53:43.020Z,0
2016-07-11T18:54:43.011Z,0
2016-07-11T18:55:43.590Z,4
2016-07-11T18:56:43.009Z,0
2016-07-11T18:57:43.019Z,0
2016-07-11T18:58:43.214Z,0
2016-07-11T18:59:43.013Z,0
2016-07-11T19:00:43.011Z,4
2016-07-11T19:01:43.018Z,4
2016-07-11T19:02:43.018Z,0
2016-07-11T19:03:43.023Z,4
2016-07-11T19:04:43.028Z,0
2016-07-11T19:05:43.024Z,0
